Time;durP1;ratioP1;P1;durP2;ratioP2;P2;SDS_P1;SDS_P2;PMS_P1;PMS_P2;Temp;Humidity;BMP_temperature;BMP_pressure;BME280_temperature;BME280_humidity;BME280_pressure;Samples;Min_cycle;Max_cycle;Signal;HPM_P1;HPM_P2
2022/01/29 00:02:51;;;;;;;38.57;30.23;;;;;;;;;;12685539;28;20028;-74
2022/01/29 00:08:55;;;;;;;49.83;36.92;;;;;;;;;;12685217;28;20020;-74
2022/01/29 00:14:57;;;;;;;45.38;35.42;;;;;;;;;;12685079;28;20036;-74
2022/01/29 00:20:59;;;;;;;39.17;33.03;;;;;;;;;;12684597;28;20035;-74
2022/01/29 00:27:07;;;;;;;38.33;30.33;;;;;;;;;;12685438;28;20032;-74
2022/01/29 00:33:13;;;;;;;39.72;31.35;;;;;;;;;;12675779;27;20051;-74
2022/01/29 00:39:14;;;;;;;43.60;32.38;;;;;;;;;;12751743;27;20031;-74
2022/01/29 00:45:16;;;;;;;39.95;31.48;;;;;;;;;;12745066;27;20067;-74
2022/01/29 00:51:17;;;;;;;33.38;27.48;;;;;;;;;;12734301;27;20035;-74
2022/01/29 00:57:19;;;;;;;37.22;29.13;;;;;;;;;;12733686;27;20273;-75
2022/01/29 01:03:21;;;;;;;38.30;29.70;;;;;;;;;;12716573;27;20039;-74
2022/01/29 01:09:23;;;;;;;37.10;27.83;;;;;;;;;;12715975;27;20038;-74
2022/01/29 01:21:34;;;;;;;41.20;32.10;;;;;;;;;;12587275;28;20481;-74
2022/01/29 01:27:36;;;;;;;43.70;33.90;;;;;;;;;;12586909;28;20033;-74
2022/01/29 01:33:38;;;;;;;38.60;31.88;;;;;;;;;;12585603;28;20044;-74
2022/01/29 01:39:41;;;;;;;41.22;32.97;;;;;;;;;;12585096;28;20049;-75
2022/01/29 01:45:43;;;;;;;40.90;29.95;;;;;;;;;;12584690;28;20111;-75
2022/01/29 01:51:44;;;;;;;39.22;30.52;;;;;;;;;;12585011;28;20039;-74
2022/01/29 01:57:46;;;;;;;35.13;27.63;;;;;;;;;;12567800;28;20055;-74
2022/01/29 02:03:48;;;;;;;36.42;28.88;;;;;;;;;;12584231;28;20055;-74
2022/01/29 03:18:00;;;;;;;50.00;38.83;;;;;;;;;;12587593;28;21017;-74
2022/01/29 03:24:02;;;;;;;50.58;39.95;;;;;;;;;;12586282;28;20134;-74
2022/01/29 03:30:04;;;;;;;40.58;31.42;;;;;;;;;;12569104;28;20512;-74
2022/01/29 03:36:06;;;;;;;37.33;29.10;;;;;;;;;;12568860;28;20045;-74
2022/01/29 03:42:09;;;;;;;37.30;29.42;;;;;;;;;;12568104;28;20060;-75
2022/01/29 03:48:11;;;;;;;37.70;25.40;;;;;;;;;;12584728;28;20477;-74
2022/01/29 04:09:33;;;;;;;36.60;22.13;;;;;;;;;;12720982;27;1307660;-74
2022/01/29 04:15:34;;;;;;;35.33;21.53;;;;;;;;;;12737542;27;20047;-74
2022/01/29 04:21:36;;;;;;;27.13;18.30;;;;;;;;;;12737188;27;20032;-74
2022/01/29 04:27:44;;;;;;;30.45;20.95;;;;;;;;;;12719799;27;20039;-74
2022/01/29 04:33:46;;;;;;;32.78;21.88;;;;;;;;;;12736125;27;20035;-74
2022/01/29 04:39:48;;;;;;;30.65;20.65;;;;;;;;;;12718975;27;20042;-74
2022/01/29 04:45:50;;;;;;;34.13;20.65;;;;;;;;;;12719236;28;20043;-75
2022/01/29 05:03:55;;;;;;;32.97;22.27;;;;;;;;;;12790623;27;20119;-74
2022/01/29 05:09:57;;;;;;;31.77;21.02;;;;;;;;;;12790124;27;20031;-74
2022/01/29 05:29:05;;;;;;;27.40;16.90;;;;;;;;;;12710506;27;20510;-73
2022/01/29 06:43:54;;;;;;;44.92;34.53;;;;;;;;;;12776577;27;20469;-73
2022/01/29 08:39:24;;;;;;;41.03;33.65;;;;;;;;;;12738676;27;20493;-74
2022/01/29 08:45:28;;;;;;;34.88;29.10;;;;;;;;;;12721449;28;20101;-74
2022/01/29 08:51:30;;;;;;;39.88;31.77;;;;;;;;;;12736359;28;20396;-74
2022/01/29 08:57:31;;;;;;;35.83;31.20;;;;;;;;;;12736508;28;20044;-74
2022/01/29 09:03:33;;;;;;;36.40;29.70;;;;;;;;;;12736334;28;20036;-74
2022/01/29 09:09:35;;;;;;;31.27;24.58;;;;;;;;;;12718273;28;20027;-74
2022/01/29 09:15:37;;;;;;;31.65;23.77;;;;;;;;;;12718543;28;20515;-74
2022/01/29 09:21:39;;;;;;;24.67;21.80;;;;;;;;;;12735462;28;20031;-73
2022/01/29 09:27:41;;;;;;;23.95;18.65;;;;;;;;;;12717578;28;20035;-73
2022/01/29 09:33:43;;;;;;;25.00;21.10;;;;;;;;;;12700616;28;20044;-74
2022/01/29 09:39:45;;;;;;;20.70;18.10;;;;;;;;;;12700551;28;20038;-73
2022/01/29 09:45:51;;;;;;;22.58;18.23;;;;;;;;;;12694835;28;20213;-73
2022/01/29 09:51:53;;;;;;;24.48;19.30;;;;;;;;;;12683206;28;20028;-73
2022/01/29 09:57:54;;;;;;;20.63;17.75;;;;;;;;;;12665902;28;20051;-74
2022/01/29 10:04:00;;;;;;;20.52;17.63;;;;;;;;;;12665900;28;20040;-74
2022/01/29 10:10:16;;;;;;;19.38;15.50;;;;;;;;;;12665239;28;20034;-74
2022/01/29 10:16:19;;;;;;;14.77;12.45;;;;;;;;;;12665061;28;20469;-74
2022/01/29 10:22:22;;;;;;;19.45;16.70;;;;;;;;;;12664496;28;20031;-74
2022/01/29 10:28:24;;;;;;;18.30;15.82;;;;;;;;;;12680987;28;20036;-73
2022/01/29 10:34:36;;;;;;;22.08;16.45;;;;;;;;;;12663665;28;20063;-74
2022/01/29 10:40:38;;;;;;;14.55;12.40;;;;;;;;;;12664117;28;20035;-74
2022/01/29 10:46:42;;;;;;;13.07;11.65;;;;;;;;;;12663483;28;20038;-74
2022/01/29 10:52:44;;;;;;;17.25;15.20;;;;;;;;;;12680080;28;20036;-74
2022/01/29 10:58:50;;;;;;;16.73;14.80;;;;;;;;;;12678350;28;20050;-75
2022/01/29 11:04:51;;;;;;;14.82;12.32;;;;;;;;;;12679301;28;20357;-75
2022/01/29 11:10:54;;;;;;;15.48;13.75;;;;;;;;;;12662288;28;20476;-74
2022/01/29 11:16:56;;;;;;;19.30;14.83;;;;;;;;;;12696727;28;20046;-74
2022/01/29 11:22:58;;;;;;;22.77;17.80;;;;;;;;;;12661632;28;20098;-74
2022/01/29 11:29:29;;;;;;;23.77;18.20;;;;;;;;;;12661523;28;20473;-74
2022/01/29 11:35:32;;;;;;;23.83;18.42;;;;;;;;;;12660720;28;20052;-74
2022/01/29 11:41:34;;;;;;;21.57;17.80;;;;;;;;;;12660298;28;20027;-75
2022/01/29 11:47:39;;;;;;;21.30;18.73;;;;;;;;;;12677423;28;20040;-75
2022/01/29 11:53:44;;;;;;;21.38;17.02;;;;;;;;;;12677142;28;20047;-75
2022/01/29 11:59:46;;;;;;;22.73;18.27;;;;;;;;;;12659958;28;20496;-75
2022/01/29 12:06:07;;;;;;;20.13;16.15;;;;;;;;;;12660602;28;20492;-75
2022/01/29 12:12:18;;;;;;;21.55;16.58;;;;;;;;;;12676251;28;20031;-75
2022/01/29 12:18:27;;;;;;;20.60;14.82;;;;;;;;;;12675729;28;20048;-73
2022/01/29 12:24:29;;;;;;;16.13;12.23;;;;;;;;;;12675796;28;20035;-74
2022/01/29 12:30:32;;;;;;;19.33;14.65;;;;;;;;;;12676282;28;20039;-74
2022/01/29 12:36:34;;;;;;;19.88;13.95;;;;;;;;;;12657918;28;20055;-74
2022/01/29 12:42:45;;;;;;;14.15;10.98;;;;;;;;;;12676048;28;20034;-74
2022/01/29 12:49:02;;;;;;;15.65;12.65;;;;;;;;;;12658852;28;20396;-74
2022/01/29 12:55:05;;;;;;;21.65;15.18;;;;;;;;;;12658515;28;20050;-74
2022/01/29 13:01:06;;;;;;;18.65;13.88;;;;;;;;;;12657990;28;20034;-75
2022/01/29 13:07:09;;;;;;;17.25;12.43;;;;;;;;;;12676017;28;20035;-75
2022/01/29 13:13:10;;;;;;;16.58;13.60;;;;;;;;;;12675215;28;20566;-74
2022/01/29 13:19:12;;;;;;;16.58;13.27;;;;;;;;;;12658250;28;20047;-75
2022/01/29 13:25:16;;;;;;;16.08;11.70;;;;;;;;;;12665933;28;20039;-75
2022/01/29 13:31:18;;;;;;;16.55;12.23;;;;;;;;;;12667264;28;20042;-75
2022/01/29 13:37:26;;;;;;;19.35;14.05;;;;;;;;;;12665528;28;20048;-76
2022/01/29 13:43:32;;;;;;;19.02;13.52;;;;;;;;;;12683538;28;20035;-76
2022/01/29 13:49:36;;;;;;;18.05;13.85;;;;;;;;;;12683191;28;20492;-76
2022/01/29 13:55:58;;;;;;;16.90;12.55;;;;;;;;;;12665739;28;20047;-73
2022/01/29 14:02:02;;;;;;;18.25;13.48;;;;;;;;;;12665643;28;20051;-74
2022/01/29 14:08:17;;;;;;;16.52;12.82;;;;;;;;;;12666002;28;20036;-75
2022/01/29 14:14:19;;;;;;;14.95;10.90;;;;;;;;;;12665244;28;20481;-75
2022/01/29 14:20:21;;;;;;;19.85;14.90;;;;;;;;;;12681940;28;20511;-75
2022/01/29 14:26:23;;;;;;;18.83;13.60;;;;;;;;;;12664682;28;20032;-75
2022/01/29 14:32:27;;;;;;;15.15;11.57;;;;;;;;;;12664397;28;20031;-75
2022/01/29 14:38:29;;;;;;;21.75;15.77;;;;;;;;;;12663751;28;20051;-75
2022/01/29 14:44:31;;;;;;;16.63;12.77;;;;;;;;;;12663715;28;20040;-75
2022/01/29 14:50:33;;;;;;;14.30;10.33;;;;;;;;;;12663629;28;20440;-75
2022/01/29 14:56:36;;;;;;;15.15;11.15;;;;;;;;;;12663269;28;20055;-75
2022/01/29 15:02:38;;;;;;;14.52;11.57;;;;;;;;;;12662534;28;20038;-75
2022/01/29 15:08:41;;;;;;;14.75;10.93;;;;;;;;;;12679263;28;20035;-74
2022/01/29 15:14:43;;;;;;;12.15;8.68;;;;;;;;;;12662361;28;20484;-75
2022/01/29 15:20:49;;;;;;;16.77;12.00;;;;;;;;;;12662148;28;20038;-75
2022/01/29 15:26:50;;;;;;;14.88;10.20;;;;;;;;;;12661574;28;20039;-75
2022/01/29 15:32:54;;;;;;;18.63;14.80;;;;;;;;;;12661669;28;20035;-75
2022/01/29 15:38:56;;;;;;;20.52;15.85;;;;;;;;;;12660690;28;20055;-75
2022/01/29 15:44:58;;;;;;;22.50;17.58;;;;;;;;;;12660676;28;20477;-75
2022/01/29 15:50:59;;;;;;;24.88;19.13;;;;;;;;;;12660894;28;20038;-75
2022/01/29 15:57:02;;;;;;;25.95;20.50;;;;;;;;;;12660271;28;20489;-74
2022/01/29 16:03:04;;;;;;;27.17;20.53;;;;;;;;;;12660525;28;20522;-75
2022/01/29 16:09:06;;;;;;;29.00;22.65;;;;;;;;;;12660057;28;20651;-75
2022/01/29 16:15:08;;;;;;;28.75;22.23;;;;;;;;;;12659710;28;20046;-74
2022/01/29 16:21:10;;;;;;;29.27;22.60;;;;;;;;;;12689664;28;20036;-74
2022/01/29 16:27:14;;;;;;;28.08;23.23;;;;;;;;;;12679162;28;20036;-74
2022/01/29 16:33:18;;;;;;;26.65;21.15;;;;;;;;;;12693003;28;20035;-74
2022/01/29 16:39:20;;;;;;;;;;;;;;;;;;12668254;28;20056;-74
2022/01/29 16:45:22;;;;;;;25.13;20.55;;;;;;;;;;12659793;28;20386;-74
2022/01/29 16:51:24;;;;;;;26.90;20.67;;;;;;;;;;12675624;28;20039;-74
2022/01/29 16:57:26;;;;;;;26.80;20.33;;;;;;;;;;12662468;28;20500;-74
2022/01/29 17:03:29;;;;;;;29.15;21.38;;;;;;;;;;12684810;28;20031;-74
2022/01/29 17:09:32;;;;;;;26.40;21.73;;;;;;;;;;12668570;28;20036;-74
2022/01/29 17:15:34;;;;;;;33.00;26.35;;;;;;;;;;12667616;28;20125;-74
2022/01/29 17:21:36;;;;;;;35.73;27.20;;;;;;;;;;12667635;28;20032;-74
2022/01/29 17:27:38;;;;;;;28.88;22.85;;;;;;;;;;12684724;28;20412;-74
2022/01/29 17:33:40;;;;;;;30.53;23.33;;;;;;;;;;12666846;28;20414;-74
2022/01/29 17:39:43;;;;;;;32.60;25.17;;;;;;;;;;12667425;28;20327;-74
2022/01/29 17:45:45;;;;;;;35.92;27.90;;;;;;;;;;12666680;28;20028;-74
2022/01/29 17:51:47;;;;;;;;;;;;;;;;;;12683772;28;20043;-74
2022/01/29 17:57:49;;;;;;;31.10;25.23;;;;;;;;;;12683060;28;19922;-74
2022/01/29 18:03:51;;;;;;;31.70;26.20;;;;;;;;;;12682900;28;20032;-74
2022/01/29 18:09:53;;;;;;;29.75;26.30;;;;;;;;;;12682238;28;20032;-74
2022/01/29 18:15:55;;;;;;;36.03;30.00;;;;;;;;;;12682097;28;20043;-74
2022/01/29 18:21:57;;;;;;;34.00;27.02;;;;;;;;;;12665065;28;20035;-75
2022/01/29 18:27:59;;;;;;;31.58;25.05;;;;;;;;;;12664878;28;20043;-74
2022/01/29 18:34:01;;;;;;;27.57;22.10;;;;;;;;;;12664088;28;20058;-75
2022/01/29 18:40:14;;;;;;;27.20;21.75;;;;;;;;;;12664173;28;20297;-75
2022/01/29 18:46:18;;;;;;;29.38;22.90;;;;;;;;;;12663899;28;20058;-74
2022/01/29 18:52:21;;;;;;;27.35;22.92;;;;;;;;;;12662676;28;20035;-74
2022/01/29 18:58:23;;;;;;;;;;;;;;;;;;12680177;28;20043;-75
2022/01/29 19:04:25;;;;;;;28.40;22.42;;;;;;;;;;12679670;28;19912;-75
2022/01/29 19:10:27;;;;;;;28.33;22.38;;;;;;;;;;12662997;28;20038;-75
2022/01/29 19:16:29;;;;;;;31.05;24.27;;;;;;;;;;12662088;28;20409;-75
2022/01/29 19:22:31;;;;;;;29.25;24.67;;;;;;;;;;12678141;28;20373;-75
2022/01/29 19:28:33;;;;;;;30.77;25.47;;;;;;;;;;12696703;28;20032;-75
2022/01/29 19:34:35;;;;;;;33.00;26.05;;;;;;;;;;12660952;28;20400;-75
2022/01/29 19:40:37;;;;;;;35.08;28.27;;;;;;;;;;12661236;28;20039;-75
2022/01/29 19:46:39;;;;;;;30.15;24.98;;;;;;;;;;12660759;28;20040;-75
2022/01/29 19:52:41;;;;;;;30.52;24.90;;;;;;;;;;12660196;28;20035;-75
2022/01/29 19:58:46;;;;;;;39.97;30.38;;;;;;;;;;12659394;28;20537;-74
2022/01/29 20:04:48;;;;;;;31.98;25.42;;;;;;;;;;12676584;28;20377;-74
2022/01/29 20:10:50;;;;;;;36.88;27.30;;;;;;;;;;12659698;28;20038;-75
2022/01/29 20:16:52;;;;;;;27.73;23.70;;;;;;;;;;12675936;28;20408;-75
2022/01/29 20:22:55;;;;;;;33.47;26.15;;;;;;;;;;12674187;28;20414;-74
2022/01/29 20:28:58;;;;;;;31.30;24.27;;;;;;;;;;12658275;28;20043;-74
2022/01/29 20:35:00;;;;;;;44.10;32.25;;;;;;;;;;12675171;28;20058;-74
2022/01/29 20:41:02;;;;;;;40.60;32.05;;;;;;;;;;12694359;28;20511;-74
2022/01/29 20:47:04;;;;;;;27.05;22.60;;;;;;;;;;12658737;28;20039;-74
2022/01/29 20:53:06;;;;;;;35.95;30.85;;;;;;;;;;12658929;28;20028;-74
2022/01/29 20:59:08;;;;;;;35.07;28.77;;;;;;;;;;12658577;28;20035;-74
2022/01/29 21:05:16;;;;;;;30.77;26.98;;;;;;;;;;12675203;28;20050;-74
2022/01/29 21:11:18;;;;;;;36.70;29.98;;;;;;;;;;12675058;28;20032;-74
2022/01/29 21:17:20;;;;;;;29.67;26.20;;;;;;;;;;12657790;28;20055;-74
2022/01/29 21:23:23;;;;;;;32.77;24.53;;;;;;;;;;12658024;28;20059;-74
2022/01/29 21:29:24;;;;;;;32.58;27.45;;;;;;;;;;12658087;28;20042;-74
2022/01/29 21:35:26;;;;;;;38.78;32.45;;;;;;;;;;12656951;28;20059;-74
2022/01/29 21:41:28;;;;;;;31.80;27.38;;;;;;;;;;12657866;28;20034;-74
2022/01/29 21:47:30;;;;;;;56.03;47.22;;;;;;;;;;12667163;28;20407;-74
2022/01/29 21:53:32;;;;;;;47.63;38.78;;;;;;;;;;12667089;28;20039;-75
2022/01/29 21:59:34;;;;;;;43.03;37.07;;;;;;;;;;12684483;28;20042;-75
2022/01/29 22:05:38;;;;;;;40.42;32.60;;;;;;;;;;12666896;28;20400;-75
2022/01/29 22:11:40;;;;;;;41.95;34.25;;;;;;;;;;12682575;28;20036;-75
2022/01/29 22:17:42;;;;;;;38.20;32.30;;;;;;;;;;12665558;28;20053;-75
2022/01/29 22:23:44;;;;;;;41.53;33.42;;;;;;;;;;12665152;28;20492;-75
2022/01/29 22:29:46;;;;;;;36.88;31.13;;;;;;;;;;12665067;28;20023;-75
2022/01/29 22:35:47;;;;;;;36.05;30.38;;;;;;;;;;12664012;28;20055;-75
2022/01/29 22:41:50;;;;;;;41.90;32.83;;;;;;;;;;12681126;28;20057;-75
2022/01/29 22:47:52;;;;;;;32.20;27.63;;;;;;;;;;12680892;28;20253;-75
2022/01/29 22:53:55;;;;;;;35.65;29.25;;;;;;;;;;12663729;28;20035;-74
2022/01/29 23:00:01;;;;;;;32.30;28.80;;;;;;;;;;12664705;28;20043;-75
2022/01/29 23:06:03;;;;;;;28.90;25.13;;;;;;;;;;12663901;28;20041;-75
2022/01/29 23:12:06;;;;;;;38.53;32.47;;;;;;;;;;12663437;28;20027;-75
2022/01/29 23:18:09;;;;;;;35.60;29.45;;;;;;;;;;12679877;28;20293;-75
2022/01/29 23:24:13;;;;;;;34.00;30.30;;;;;;;;;;12662270;28;20406;-75
2022/01/29 23:30:28;;;;;;;34.95;30.17;;;;;;;;;;12637904;28;20535;-74
2022/01/29 23:36:33;;;;;;;38.17;30.48;;;;;;;;;;12602362;28;20353;-74
2022/01/29 23:55:03;;;;;;;34.35;29.13;;;;;;;;;;12636303;28;20033;-74
